Covington, Kentucky
Current Conditions -  °F | °C
As of 8:53 PM on Sunday 21 Dec 2014 (Local Time) from KLUK Reporting Station
Clear Clear  
Wind Chill: 26°   Ceiling: Unl
Heat Index: 26°   Visibility: 7mi
Dew Point: 24°   Wind: 3mph
Humidity: 92%   Direction: 60°ENE
Pressure: 30.19"   Gusts: NA
Location:  39.08°N, 84.51°W
Report Text: KLUK 220153Z 06003KT 7SM CLR M03/M04 A3019 RMK AO2 SLP228 T10331044
Loading
Personal Weather Stations






























Interactive Weather Map New forecast layout! Learn more

10-Day Weather Forecast

Advertisements
Track Severe Weather on mobile